Time;durP1;ratioP1;P1;durP2;ratioP2;P2;SDS_P1;SDS_P2;PMS_P1;PMS_P2;Temp;Humidity;BMP_temperature;BMP_pressure;BME280_temperature;BME280_humidity;BME280_pressure;Samples;Min_cycle;Max_cycle;Signal;HPM_P1;HPM_P2
2022/10/02 00:02:15;;;;;;;8.02;2.50;;;16.70;69.50;;;;;;5017331;28;20452;-49
2022/10/02 00:04:45;;;;;;;12.30;3.60;;;16.70;69.60;;;;;;5015408;28;20058;-51
2022/10/02 00:07:22;;;;;;;11.48;2.38;;;16.70;68.80;;;;;;5014894;28;20045;-49
2022/10/02 00:09:55;;;;;;;8.77;2.45;;;16.80;69.00;;;;;;5012969;28;20038;-48
2022/10/02 00:12:27;;;;;;;12.30;2.83;;;16.80;69.00;;;;;;5019388;28;20116;-49
2022/10/02 00:15:06;;;;;;;11.13;3.55;;;16.90;68.80;;;;;;5023907;28;20254;-49
2022/10/02 00:17:38;;;;;;;13.30;3.40;;;16.90;69.00;;;;;;5013393;28;20041;-49
2022/10/02 00:20:15;;;;;;;11.30;3.20;;;16.90;68.90;;;;;;5015722;28;20529;-51
2022/10/02 00:22:57;;;;;;;7.78;2.88;;;17.00;69.30;;;;;;5018113;28;20120;-50
2022/10/02 00:25:38;;;;;;;9.85;2.50;;;17.00;68.90;;;;;;5022874;28;20502;-50
2022/10/02 00:28:16;;;;;;;9.20;2.33;;;17.00;69.10;;;;;;5033043;28;20041;-51
2022/10/02 00:31:19;;;;;;;8.00;2.22;;;17.00;69.10;;;;;;5020192;28;20414;-51
2022/10/02 00:34:30;;;;;;;10.67;2.63;;;17.10;69.60;;;;;;5015077;28;20077;-51
2022/10/02 00:37:19;;;;;;;10.82;2.70;;;17.10;69.50;;;;;;4992904;28;20057;-50
2022/10/02 00:40:20;;;;;;;11.95;3.83;;;17.10;68.50;;;;;;5014919;28;20459;-50
2022/10/02 00:43:11;;;;;;;11.55;2.60;;;17.20;69.50;;;;;;5016382;28;20409;-51
2022/10/02 00:45:38;;;;;;;10.13;2.97;;;17.10;68.50;;;;;;5033460;28;20159;-51
2022/10/02 00:48:24;;;;;;;10.48;3.80;;;17.10;68.60;;;;;;5032395;28;20091;-51
2022/10/02 00:51:08;;;;;;;12.25;3.67;;;17.10;69.50;;;;;;5016737;28;20054;-49
2022/10/02 00:53:59;;;;;;;14.23;3.60;;;17.20;69.60;;;;;;5012378;28;20038;-48
2022/10/02 00:56:48;;;;;;;9.43;2.45;;;17.10;69.20;;;;;;5011470;28;20046;-50
2022/10/02 00:59:25;;;;;;;9.48;2.25;;;17.20;69.50;;;;;;5014290;28;20456;-51
2022/10/02 01:02:24;;;;;;;15.73;4.32;;;17.10;68.80;;;;;;5023017;28;20052;-51
2022/10/02 01:04:53;;;;;;;13.75;2.88;;;17.10;69.80;;;;;;4992383;28;20426;-50
2022/10/02 01:07:22;;;;;;;10.07;3.17;;;17.10;68.90;;;;;;5003183;28;20038;-50
2022/10/02 01:09:49;;;;;;;10.63;3.20;;;17.10;69.20;;;;;;5016952;28;20045;-47
2022/10/02 01:12:16;;;;;;;7.70;2.70;;;17.10;69.30;;;;;;5023671;28;20052;-49
2022/10/02 01:14:42;;;;;;;11.32;3.33;;;17.10;69.40;;;;;;5030186;28;20124;-48
2022/10/02 01:17:33;;;;;;;15.75;3.88;;;17.10;69.50;;;;;;5011769;28;20053;-51
2022/10/02 01:20:04;;;;;;;12.05;3.17;;;17.10;70.60;;;;;;5015853;28;20048;-48
2022/10/02 01:22:41;;;;;;;12.02;3.42;;;17.10;69.60;;;;;;5009861;28;20048;-52
2022/10/02 01:25:10;;;;;;;10.68;3.03;;;17.10;70.00;;;;;;5011554;28;20175;-50
2022/10/02 01:27:37;;;;;;;13.73;5.22;;;17.10;69.80;;;;;;5017097;28;20042;-51
2022/10/02 01:30:10;;;;;;;14.68;3.05;;;17.10;69.80;;;;;;5023514;28;20062;-49
2022/10/02 01:32:54;;;;;;;11.40;3.13;;;17.10;69.90;;;;;;5032059;28;20038;-51
2022/10/02 01:35:24;;;;;;;12.45;3.28;;;17.10;70.70;;;;;;5025840;28;20120;-49
2022/10/02 01:37:54;;;;;;;8.60;2.50;;;17.00;69.90;;;;;;5017106;28;20074;-51
2022/10/02 01:40:32;;;;;;;14.68;2.60;;;17.00;70.00;;;;;;5021722;28;20042;-50
2022/10/02 01:43:07;;;;;;;33.83;6.38;;;17.00;70.60;;;;;;5031708;28;20539;-47
2022/10/02 01:45:54;;;;;;;16.98;3.10;;;17.00;70.20;;;;;;5018258;28;20055;-51
2022/10/02 01:48:46;;;;;;;9.93;2.70;;;17.00;71.20;;;;;;5023027;28;20046;-51
2022/10/02 01:51:43;;;;;;;10.25;3.78;;;17.00;70.80;;;;;;5031072;28;20056;-50
2022/10/02 01:54:31;;;;;;;17.58;3.67;;;17.00;71.20;;;;;;5008590;28;20054;-51
2022/10/02 01:57:20;;;;;;;14.02;2.92;;;17.00;71.10;;;;;;5008919;28;20053;-50
2022/10/02 02:00:08;;;;;;;9.35;2.80;;;17.00;71.00;;;;;;5012374;28;20505;-50
2022/10/02 02:02:52;;;;;;;11.85;3.10;;;17.10;71.50;;;;;;5010330;28;20417;-50
2022/10/02 02:05:45;;;;;;;13.50;3.10;;;17.00;70.40;;;;;;5035618;28;20054;-48
2022/10/02 02:08:35;;;;;;;13.00;3.28;;;17.10;71.40;;;;;;5023361;28;20048;-51
2022/10/02 02:11:01;;;;;;;17.15;4.35;;;17.00;71.00;;;;;;5030097;28;20068;-49
2022/10/02 02:13:37;;;;;;;13.68;3.58;;;17.00;70.60;;;;;;5016442;28;20045;-46
2022/10/02 02:16:30;;;;;;;12.82;3.63;;;17.10;71.30;;;;;;5022599;28;20516;-50
2022/10/02 02:19:05;;;;;;;13.77;3.25;;;17.00;71.10;;;;;;5011205;28;20081;-47
2022/10/02 02:21:40;;;;;;;14.73;5.32;;;17.10;71.10;;;;;;5010285;28;20057;-50
2022/10/02 02:24:16;;;;;;;22.48;4.10;;;17.10;71.20;;;;;;5013943;28;20070;-48
2022/10/02 02:26:47;;;;;;;14.50;3.30;;;17.10;71.90;;;;;;5021996;28;20069;-47
2022/10/02 02:29:22;;;;;;;17.15;3.17;;;17.10;71.10;;;;;;5030882;28;20520;-50
2022/10/02 02:31:52;;;;;;;16.92;4.15;;;17.10;71.20;;;;;;5017975;28;20125;-46
2022/10/02 02:34:29;;;;;;;14.07;3.28;;;17.10;71.20;;;;;;5017040;28;20062;-49
2022/10/02 02:37:04;;;;;;;11.80;3.30;;;17.20;71.60;;;;;;5021743;28;20049;-50
2022/10/02 02:39:41;;;;;;;20.95;4.43;;;17.20;71.50;;;;;;5030111;28;20565;-51
2022/10/02 02:42:09;;;;;;;13.38;3.53;;;17.20;71.70;;;;;;5021755;28;20053;-49
2022/10/02 02:44:55;;;;;;;12.77;4.07;;;17.30;71.40;;;;;;5022730;28;20041;-46
2022/10/02 02:47:39;;;;;;;14.88;3.15;;;17.30;72.20;;;;;;5022038;28;20037;-48
2022/10/02 02:50:23;;;;;;;12.45;3.95;;;17.30;72.00;;;;;;5029710;28;20041;-48
2022/10/02 02:53:31;;;;;;;13.85;3.90;;;17.40;72.10;;;;;;5014758;28;20045;-47
2022/10/02 02:56:04;;;;;;;9.85;2.90;;;17.40;71.90;;;;;;4985181;28;20143;-50
2022/10/02 02:58:49;;;;;;;14.68;3.30;;;17.40;71.40;;;;;;5020302;28;20061;-48
2022/10/02 03:01:19;;;;;;;10.73;3.72;;;17.40;71.60;;;;;;5012892;28;20127;-50
2022/10/02 03:03:46;;;;;;;14.30;2.97;;;17.40;71.40;;;;;;5021766;28;20073;-51
2022/10/02 03:06:17;;;;;;;16.67;3.53;;;17.40;71.40;;;;;;5029115;28;20073;-50
2022/10/02 03:08:46;;;;;;;11.48;3.78;;;17.40;71.50;;;;;;5026519;28;20406;-50
2022/10/02 03:11:25;;;;;;;25.42;3.88;;;17.50;71.40;;;;;;5010004;28;20104;-47
2022/10/02 03:14:08;;;;;;;10.98;2.95;;;17.50;71.80;;;;;;5017960;28;20068;-48
2022/10/02 03:16:56;;;;;;;11.35;2.90;;;17.50;71.60;;;;;;5002930;28;20120;-50
2022/10/02 03:19:32;;;;;;;10.80;2.88;;;17.50;71.00;;;;;;5011251;28;20420;-49
2022/10/02 03:22:17;;;;;;;10.45;2.38;;;17.50;70.60;;;;;;5014510;28;20050;-46
2022/10/02 03:25:25;;;;;;;16.42;3.53;;;17.50;70.60;;;;;;5009652;28;20053;-51
2022/10/02 03:28:02;;;;;;;12.07;1.98;;;17.50;71.10;;;;;;5009680;28;20080;-49
2022/10/02 03:30:32;;;;;;;9.07;2.75;;;17.50;70.70;;;;;;5017433;28;20045;-47
2022/10/02 03:33:00;;;;;;;12.38;2.78;;;17.50;70.40;;;;;;5021938;28;20041;-47
2022/10/02 03:35:28;;;;;;;9.00;2.88;;;17.40;70.50;;;;;;5027818;28;20053;-48
2022/10/02 03:38:03;;;;;;;8.38;3.55;;;17.40;70.70;;;;;;5021900;28;20057;-50
2022/10/02 03:40:33;;;;;;;8.70;2.05;;;17.40;71.10;;;;;;5021701;28;20045;-50
2022/10/02 03:43:00;;;;;;;9.10;2.55;;;17.40;70.80;;;;;;5025807;28;20117;-50
2022/10/02 03:45:28;;;;;;;6.63;2.35;;;17.40;70.90;;;;;;5028543;28;20049;-48
2022/10/02 03:48:15;;;;;;;11.15;2.75;;;17.40;70.90;;;;;;5020735;28;20042;-49
2022/10/02 03:50:45;;;;;;;9.65;2.95;;;17.40;70.90;;;;;;5019612;28;20052;-51
2022/10/02 03:53:20;;;;;;;10.10;2.42;;;17.40;71.00;;;;;;5026955;28;20092;-47
2022/10/02 03:55:49;;;;;;;;;;;17.40;71.20;;;;;;5021193;28;20042;-48
2022/10/02 03:58:24;;;;;;;6.40;2.00;;;17.50;71.30;;;;;;5022534;28;19983;-49
2022/10/02 04:00:58;;;;;;;13.95;2.78;;;17.40;70.80;;;;;;5013288;28;20052;-50
2022/10/02 04:03:50;;;;;;;8.03;2.17;;;17.40;71.40;;;;;;5010926;28;20515;-51
2022/10/02 04:06:25;;;;;;;9.43;2.10;;;17.40;72.30;;;;;;5017679;28;20306;-48
2022/10/02 04:09:04;;;;;;;10.07;3.00;;;17.40;71.70;;;;;;5014300;28;20069;-50
2022/10/02 04:11:37;;;;;;;6.68;2.63;;;17.40;71.90;;;;;;5020845;28;20046;-49
2022/10/02 04:14:20;;;;;;;18.40;5.07;;;17.40;72.10;;;;;;5028118;28;20042;-48
2022/10/02 04:16:56;;;;;;;7.75;2.30;;;17.40;72.50;;;;;;5012260;28;20054;-49
2022/10/02 04:19:28;;;;;;;12.38;3.10;;;17.30;71.90;;;;;;5011247;28;20118;-50
2022/10/02 04:22:18;;;;;;;14.70;3.65;;;17.30;72.20;;;;;;5026887;28;20056;-49
2022/10/02 04:25:09;;;;;;;10.70;2.95;;;17.30;72.30;;;;;;5012120;28;20063;-50
2022/10/02 04:27:40;;;;;;;9.20;3.22;;;17.30;72.60;;;;;;5018566;28;20033;-48
2022/10/02 04:30:17;;;;;;;12.73;3.17;;;17.30;72.30;;;;;;5024828;28;20049;-47
2022/10/02 04:32:46;;;;;;;7.93;2.83;;;17.30;72.50;;;;;;5032760;28;20758;-47
2022/10/02 04:35:46;;;;;;;11.60;2.78;;;17.30;72.30;;;;;;5019787;28;20644;-48
2022/10/02 04:38:39;;;;;;;10.90;3.33;;;17.40;73.10;;;;;;5020590;28;20602;-47
2022/10/02 04:41:39;;;;;;;12.95;3.33;;;17.40;73.00;;;;;;5032210;28;20429;-47
2022/10/02 04:44:32;;;;;;;10.50;2.80;;;17.40;73.10;;;;;;5020824;28;20061;-49
2022/10/02 04:47:02;;;;;;;;;;;17.40;72.70;;;;;;5015148;28;20140;-46
2022/10/02 04:49:39;;;;;;;7.03;2.42;;;17.40;72.40;;;;;;5011360;28;19928;-49
2022/10/02 04:52:18;;;;;;;13.07;3.28;;;17.40;72.00;;;;;;5010999;28;20042;-49
2022/10/02 04:55:13;;;;;;;5.97;2.00;;;17.40;72.00;;;;;;5024283;28;20124;-47
2022/10/02 04:57:55;;;;;;;10.68;3.03;;;17.40;72.70;;;;;;4999937;28;20052;-49
2022/10/02 05:00:35;;;;;;;8.52;2.50;;;17.40;72.50;;;;;;5010056;28;20037;-48
2022/10/02 05:03:28;;;;;;;12.95;3.55;;;17.40;72.60;;;;;;5010396;28;20387;-46
2022/10/02 05:06:15;;;;;;;8.93;2.47;;;17.40;72.90;;;;;;5010070;28;20042;-47
2022/10/02 05:08:50;;;;;;;8.85;3.40;;;17.40;72.70;;;;;;5010169;28;20042;-50
2022/10/02 05:11:49;;;;;;;9.90;2.83;;;17.40;72.40;;;;;;5008374;28;20053;-46
2022/10/02 05:14:25;;;;;;;7.70;2.22;;;17.40;73.10;;;;;;5022263;28;20045;-48
2022/10/02 05:17:33;;;;;;;11.25;2.80;;;17.40;72.80;;;;;;5016413;28;20038;-47
2022/10/02 05:20:02;;;;;;;8.82;3.33;;;17.40;73.20;;;;;;5009352;28;20052;-48
2022/10/02 05:22:50;;;;;;;7.75;2.28;;;17.40;72.40;;;;;;5010853;28;20041;-47
2022/10/02 05:25:32;;;;;;;8.57;2.22;;;17.40;73.20;;;;;;5014488;28;20434;-47
2022/10/02 05:28:29;;;;;;;8.20;2.40;;;17.40;72.90;;;;;;5010616;28;20053;-49
2022/10/02 05:31:18;;;;;;;7.72;3.50;;;17.40;73.00;;;;;;5012349;28;20050;-50
2022/10/02 05:34:33;;;;;;;6.57;1.92;;;17.40;73.20;;;;;;5020050;28;20073;-46
2022/10/02 05:37:17;;;;;;;6.53;2.60;;;17.40;73.20;;;;;;5012063;28;20046;-49
2022/10/02 05:40:16;;;;;;;8.40;2.13;;;17.40;73.00;;;;;;5017040;28;20457;-48
2022/10/02 05:43:00;;;;;;;7.93;2.33;;;17.40;73.20;;;;;;5018623;28;20069;-50
2022/10/02 05:45:39;;;;;;;8.38;2.15;;;17.40;72.90;;;;;;5022086;28;20141;-47
2022/10/02 05:48:27;;;;;;;6.20;2.22;;;17.40;73.00;;;;;;5012535;28;20045;-47
2022/10/02 05:51:12;;;;;;;10.60;3.13;;;17.40;73.10;;;;;;5015700;28;20081;-47
2022/10/02 05:54:04;;;;;;;8.55;2.30;;;17.40;72.70;;;;;;5012976;28;20117;-50
2022/10/02 05:56:37;;;;;;;5.55;1.92;;;17.40;73.10;;;;;;5011157;28;20052;-47
2022/10/02 05:59:33;;;;;;;6.75;2.17;;;17.40;72.70;;;;;;5012315;28;20046;-51
2022/10/02 06:02:24;;;;;;;6.50;1.92;;;17.40;73.20;;;;;;5021104;28;20410;-47
2022/10/02 06:05:16;;;;;;;4.70;2.05;;;17.40;72.60;;;;;;5006418;28;20065;-47
2022/10/02 06:07:46;;;;;;;9.73;2.03;;;17.40;72.90;;;;;;5000145;28;20410;-47
2022/10/02 06:10:17;;;;;;;;;;;17.40;72.60;;;;;;5019666;28;20049;-50
2022/10/02 06:13:01;;;;;;;6.65;2.13;;;17.40;72.80;;;;;;4997547;28;19932;-50
2022/10/02 06:15:41;;;;;;;7.97;2.30;;;17.40;72.80;;;;;;5012965;28;20461;-55
2022/10/02 06:18:14;;;;;;;8.93;2.70;;;17.40;72.80;;;;;;5012574;28;20129;-53
2022/10/02 06:20:56;;;;;;;6.70;2.25;;;17.40;72.70;;;;;;5017979;28;20045;-50
2022/10/02 06:23:34;;;;;;;4.07;2.00;;;17.40;73.10;;;;;;5014277;28;20549;-52
2022/10/02 06:26:08;;;;;;;9.00;2.40;;;17.40;73.20;;;;;;5006622;28;20050;-54
2022/10/02 06:28:41;;;;;;;7.53;2.42;;;17.40;72.90;;;;;;5014895;28;20534;-52
2022/10/02 06:31:36;;;;;;;5.53;2.08;;;17.40;73.10;;;;;;5014726;28;20502;-55
2022/10/02 06:34:05;;;;;;;4.03;2.00;;;17.50;73.20;;;;;;5017463;28;20417;-53
2022/10/02 06:36:50;;;;;;;6.63;1.98;;;17.40;72.70;;;;;;5015557;28;20517;-54
2022/10/02 06:39:44;;;;;;;7.45;2.30;;;17.50;73.20;;;;;;5020400;28;20132;-54
2022/10/02 06:42:19;;;;;;;7.78;2.47;;;17.50;73.20;;;;;;5009224;28;20053;-54
2022/10/02 06:45:17;;;;;;;5.88;2.25;;;17.50;73.20;;;;;;5013446;28;20723;-54
2022/10/02 06:48:14;;;;;;;7.35;2.17;;;17.50;73.20;;;;;;5006251;28;20092;-54
2022/10/02 06:50:56;;;;;;;7.38;2.50;;;17.50;72.90;;;;;;5009511;28;20052;-54
2022/10/02 06:53:40;;;;;;;8.85;2.58;;;17.60;72.80;;;;;;5027421;28;20472;-54
2022/10/02 06:56:25;;;;;;;7.15;2.83;;;17.60;72.80;;;;;;5011356;28;20085;-54
2022/10/02 06:59:05;;;;;;;9.93;2.05;;;17.70;72.90;;;;;;5017548;28;20041;-54
2022/10/02 07:02:00;;;;;;;6.22;1.75;;;17.70;72.70;;;;;;5015050;28;20095;-53
2022/10/02 07:04:41;;;;;;;4.28;1.90;;;17.70;72.60;;;;;;5018226;28;20052;-53
2022/10/02 07:07:40;;;;;;;6.90;2.22;;;17.70;72.10;;;;;;5015342;28;20046;-54
2022/10/02 07:10:31;;;;;;;6.60;1.90;;;17.80;72.60;;;;;;5029471;28;20056;-54
2022/10/02 07:13:11;;;;;;;7.80;2.60;;;17.80;72.40;;;;;;5004754;28;20117;-54
2022/10/02 07:16:07;;;;;;;4.45;1.92;;;17.80;72.00;;;;;;5019902;28;20080;-54
2022/10/02 07:19:12;;;;;;;8.77;2.88;;;17.80;72.20;;;;;;5001868;28;20061;-54
2022/10/02 07:21:53;;;;;;;5.63;2.88;;;17.80;72.00;;;;;;5019773;28;20490;-53
2022/10/02 07:24:57;;;;;;;4.65;1.90;;;17.80;71.80;;;;;;5007257;28;20391;-54
2022/10/02 07:27:35;;;;;;;6.13;2.15;;;17.80;71.80;;;;;;5020421;28;20405;-54
2022/10/02 07:30:07;;;;;;;5.85;2.05;;;17.80;71.60;;;;;;5009519;28;20050;-54
2022/10/02 07:32:47;;;;;;;7.03;2.05;;;17.80;71.50;;;;;;5013951;28;20030;-54
2022/10/02 07:35:48;;;;;;;4.50;2.13;;;17.80;71.60;;;;;;5020367;28;20401;-54
2022/10/02 07:38:42;;;;;;;7.57;2.65;;;17.80;71.60;;;;;;5027388;28;20421;-54
2022/10/02 07:41:32;;;;;;;3.53;1.80;;;17.80;71.50;;;;;;5012669;28;20049;-54
2022/10/02 07:44:24;;;;;;;5.10;2.10;;;17.80;71.60;;;;;;5013919;28;20116;-53
2022/10/02 07:47:09;;;;;;;7.72;1.98;;;17.80;71.40;;;;;;4989709;28;20042;-53
2022/10/02 07:49:54;;;;;;;5.57;1.77;;;17.80;71.30;;;;;;5010995;28;20549;-53
2022/10/02 07:52:36;;;;;;;6.53;2.72;;;17.80;71.60;;;;;;5014693;28;20042;-63
2022/10/02 07:55:15;;;;;;;6.63;1.73;;;17.80;71.30;;;;;;5007264;28;20400;-54
2022/10/02 07:57:58;;;;;;;7.63;2.42;;;17.80;71.60;;;;;;5017155;28;20042;-52
2022/10/02 08:00:30;;;;;;;3.22;1.60;;;17.80;71.50;;;;;;5031813;28;20110;-53
2022/10/02 08:03:01;;;;;;;4.35;1.75;;;17.80;71.30;;;;;;5037639;28;20041;-51
2022/10/02 08:05:51;;;;;;;6.25;2.38;;;17.80;71.30;;;;;;5025410;28;20054;-53
2022/10/02 08:08:37;;;;;;;4.10;1.67;;;17.80;71.60;;;;;;5015592;28;20045;-53
2022/10/02 08:11:18;;;;;;;4.93;1.52;;;17.90;71.60;;;;;;5010192;28;20117;-53
2022/10/02 08:14:06;;;;;;;7.15;1.70;;;17.90;71.50;;;;;;5023174;28;20038;-51
2022/10/02 08:16:44;;;;;;;5.85;1.35;;;17.90;71.50;;;;;;5012384;28;20038;-54
2022/10/02 08:19:42;;;;;;;6.03;1.85;;;17.90;71.40;;;;;;5013204;28;20449;-54
2022/10/02 08:22:31;;;;;;;7.40;2.08;;;17.90;71.40;;;;;;5013158;28;20046;-54
2022/10/02 08:25:04;;;;;;;7.68;2.00;;;17.90;71.20;;;;;;5031904;22;20041;-47
2022/10/02 08:27:54;;;;;;;6.80;1.98;;;18.00;70.90;;;;;;5038395;28;20037;-52
2022/10/02 08:30:21;;;;;;;5.75;1.50;;;18.00;70.90;;;;;;5040628;28;20041;-52
2022/10/02 08:32:48;;;;;;;6.78;1.40;;;18.00;70.80;;;;;;5036704;28;20037;-50
2022/10/02 08:35:17;;;;;;;4.78;1.50;;;17.90;70.70;;;;;;5030988;28;20037;-48
2022/10/02 08:38:09;;;;;;;4.40;1.58;;;17.90;70.80;;;;;;5028646;28;20052;-50
2022/10/02 08:40:41;;;;;;;6.13;1.60;;;17.90;70.90;;;;;;5032800;28;20068;-47
2022/10/02 08:43:26;;;;;;;1.88;1.08;;;17.90;70.70;;;;;;5034500;28;20506;-48
2022/10/02 08:46:27;;;;;;;4.82;1.52;;;17.90;71.10;;;;;;5032057;28;20060;-50
2022/10/02 08:49:13;;;;;;;6.60;1.40;;;17.90;71.20;;;;;;5038584;28;20422;-49
2022/10/02 08:51:52;;;;;;;4.50;1.63;;;17.90;71.60;;;;;;5035605;28;20044;-47
2022/10/02 08:54:35;;;;;;;5.43;1.42;;;17.90;71.40;;;;;;5032933;28;20069;-52
2022/10/02 08:57:35;;;;;;;4.55;1.27;;;18.00;71.60;;;;;;5027261;28;20113;-50
2022/10/02 09:00:19;;;;;;;5.00;1.50;;;18.00;71.60;;;;;;5039071;28;20113;-50
2022/10/02 09:03:05;;;;;;;2.33;1.20;;;18.00;71.10;;;;;;5031848;28;20037;-47
2022/10/02 09:06:02;;;;;;;4.40;1.23;;;18.10;71.40;;;;;;5019335;28;20135;-52
2022/10/02 09:08:47;;;;;;;4.63;1.95;;;18.20;71.20;;;;;;5038896;28;20087;-51
2022/10/02 09:11:45;;;;;;;2.63;1.35;;;18.30;70.80;;;;;;5036608;28;20383;-48
2022/10/02 09:14:32;;;;;;;6.05;1.83;;;18.30;71.00;;;;;;5025406;28;20422;-52
2022/10/02 09:17:09;;;;;;;1.90;0.98;;;18.40;70.60;;;;;;5029669;28;20063;-49
2022/10/02 09:20:03;;;;;;;4.40;1.38;;;18.50;70.30;;;;;;5040931;28;20421;-49
2022/10/02 09:22:49;;;;;;;3.70;1.13;;;18.60;70.20;;;;;;5037033;28;20498;-48
2022/10/02 09:25:31;;;;;;;6.45;1.80;;;18.60;69.90;;;;;;5025792;28;20038;-53
2022/10/02 09:28:30;;;;;;;3.73;1.37;;;18.70;70.00;;;;;;5038609;28;20597;-49
2022/10/02 09:31:41;;;;;;;5.50;1.23;;;18.80;69.70;;;;;;5042219;28;20044;-50
2022/10/02 09:34:26;;;;;;;3.58;1.35;;;18.80;69.70;;;;;;5025872;28;20041;-49
2022/10/02 09:37:18;;;;;;;5.00;1.45;;;18.90;69.20;;;;;;5037585;28;20112;-48
2022/10/02 09:40:12;;;;;;;3.78;1.08;;;19.00;69.00;;;;;;5039120;28;20051;-52
2022/10/02 09:43:17;;;;;;;3.45;1.35;;;19.10;69.10;;;;;;5028843;28;20037;-48
2022/10/02 09:46:00;;;;;;;4.28;1.40;;;19.20;68.80;;;;;;5031832;28;20682;-49
2022/10/02 09:49:02;;;;;;;4.13;1.30;;;19.20;68.30;;;;;;5039801;28;20049;-52
2022/10/02 09:51:41;;;;;;;8.43;1.60;;;19.30;68.30;;;;;;5030448;28;20041;-51
2022/10/02 09:54:28;;;;;;;5.53;1.60;;;19.30;67.90;;;;;;5033903;28;20045;-48
2022/10/02 09:57:23;;;;;;;3.08;1.05;;;19.30;67.90;;;;;;5041107;28;20060;-49
2022/10/02 10:00:24;;;;;;;4.00;1.45;;;19.40;68.30;;;;;;5050914;28;20045;-52
2022/10/02 10:03:39;;;;;;;6.10;1.85;;;19.50;67.80;;;;;;5034856;28;20462;-48
2022/10/02 10:06:19;;;;;;;3.08;1.40;;;19.50;67.60;;;;;;5039769;28;20035;-49
2022/10/02 10:09:08;;;;;;;4.88;1.40;;;19.60;67.50;;;;;;5031292;28;20072;-50
2022/10/02 10:12:07;;;;;;;4.68;1.85;;;19.60;67.60;;;;;;5028433;28;20045;-50
2022/10/02 10:14:47;;;;;;;6.78;1.90;;;19.60;67.70;;;;;;5031075;28;20037;-51
2022/10/02 10:17:47;;;;;;;3.08;1.58;;;19.70;67.50;;;;;;5035286;28;20099;-48
2022/10/02 10:20:50;;;;;;;7.35;2.40;;;19.80;67.20;;;;;;5037800;28;20569;-50
2022/10/02 10:23:30;;;;;;;5.65;2.28;;;19.90;66.50;;;;;;5029399;28;20041;-48
2022/10/02 10:26:25;;;;;;;3.65;2.22;;;19.90;66.60;;;;;;5033249;28;20038;-48
2022/10/02 10:29:23;;;;;;;5.45;1.65;;;20.00;66.20;;;;;;5031100;28;20037;-52
2022/10/02 10:32:02;;;;;;;8.38;2.03;;;20.10;65.80;;;;;;5024758;28;20056;-51
2022/10/02 10:34:45;;;;;;;5.10;1.80;;;20.10;65.80;;;;;;5031249;28;20044;-51
2022/10/02 10:40:59;;;;;;;5.63;1.90;;;20.20;65.60;;;;;;5020737;28;20034;-51
2022/10/02 10:44:00;;;;;;;4.45;2.15;;;20.20;65.20;;;;;;5039594;28;20493;-50
2022/10/02 10:47:01;;;;;;;8.40;2.47;;;20.20;65.00;;;;;;5049622;28;20041;-52
2022/10/02 10:50:01;;;;;;;5.20;2.58;;;20.20;65.20;;;;;;5034141;28;20064;-50
2022/10/02 10:52:50;;;;;;;4.15;2.40;;;20.20;65.20;;;;;;5041918;28;20115;-51
2022/10/02 10:55:58;;;;;;;4.03;2.17;;;20.30;64.40;;;;;;5043735;28;20034;-48
2022/10/02 10:58:52;;;;;;;10.55;3.70;;;20.30;63.90;;;;;;5021244;28;20045;-49
2022/10/02 11:01:29;;;;;;;6.93;2.38;;;20.30;64.20;;;;;;5030646;28;20478;-49
2022/10/02 11:04:20;;;;;;;4.43;2.78;;;20.40;64.30;;;;;;5034718;28;20045;-48
2022/10/02 11:07:08;;;;;;;4.30;2.80;;;20.50;64.00;;;;;;5029897;28;20049;-52
2022/10/02 11:10:16;;;;;;;7.00;2.83;;;20.50;64.10;;;;;;5035585;28;20519;-51
2022/10/02 11:13:15;;;;;;;7.90;3.00;;;20.50;63.90;;;;;;5032394;28;20040;-49
2022/10/02 11:16:07;;;;;;;3.78;2.58;;;20.60;63.70;;;;;;5008236;28;20496;-50
2022/10/02 11:18:53;;;;;;;9.15;4.47;;;20.60;63.90;;;;;;5026316;28;20045;-50
2022/10/02 11:21:44;;;;;;;7.72;3.03;;;20.60;63.00;;;;;;5041305;28;20037;-52
2022/10/02 11:24:29;;;;;;;6.38;2.72;;;20.60;63.10;;;;;;5010230;28;20585;-50
2022/10/02 11:27:28;;;;;;;7.88;3.17;;;20.60;63.40;;;;;;5023853;28;20052;-51
2022/10/02 11:30:23;;;;;;;9.40;3.00;;;20.60;62.40;;;;;;5032841;28;20029;-49
2022/10/02 11:32:55;;;;;;;8.60;3.10;;;20.70;62.30;;;;;;5053649;28;20043;-48
2022/10/02 11:35:53;;;;;;;7.13;3.40;;;20.60;62.70;;;;;;5031281;28;20099;-52
2022/10/02 11:38:53;;;;;;;5.95;2.50;;;20.70;61.30;;;;;;5040905;28;20116;-52
2022/10/02 11:41:53;;;;;;;7.30;3.30;;;20.70;61.50;;;;;;5043133;28;20078;-50
2022/10/02 11:44:54;;;;;;;7.35;4.00;;;20.60;62.00;;;;;;5046730;28;20033;-49
2022/10/02 11:47:51;;;;;;;4.05;2.65;;;20.70;62.00;;;;;;5045894;28;20055;-49
2022/10/02 11:50:54;;;;;;;6.43;2.72;;;20.70;61.00;;;;;;5038380;28;20049;-49
2022/10/02 11:53:45;;;;;;;9.38;3.05;;;20.80;60.30;;;;;;5033835;28;20074;-51
2022/10/02 11:56:42;;;;;;;8.82;4.03;;;20.80;59.70;;;;;;5025743;28;20444;-51
2022/10/02 11:59:36;;;;;;;6.75;3.10;;;20.80;59.70;;;;;;5040487;28;20409;-48
2022/10/02 12:02:33;;;;;;;4.90;3.40;;;20.80;59.10;;;;;;5053982;28;20387;-48
2022/10/02 12:05:21;;;;;;;5.43;2.60;;;20.80;59.10;;;;;;5038552;28;20033;-49
2022/10/02 12:08:06;;;;;;;4.82;2.72;;;20.90;58.80;;;;;;5041836;28;20037;-48
2022/10/02 12:10:47;;;;;;;5.88;3.08;;;21.00;58.80;;;;;;5014399;28;20046;-50
2022/10/02 12:13:30;;;;;;;4.68;3.10;;;21.10;58.90;;;;;;5031926;28;20129;-48
2022/10/02 12:16:05;;;;;;;7.22;3.45;;;21.20;58.10;;;;;;5032279;28;20112;-53
2022/10/02 12:18:43;;;;;;;6.65;3.38;;;21.30;57.50;;;;;;5031658;28;20045;-50
2022/10/02 12:27:49;;;;;;;4.65;2.70;;;21.50;56.90;;;;;;5033806;28;20051;-49
2022/10/02 12:30:47;;;;;;;7.38;3.15;;;21.50;56.40;;;;;;5032438;28;20110;-49
2022/10/02 12:33:44;;;;;;;5.00;2.70;;;21.50;56.40;;;;;;5026126;28;20128;-49
2022/10/02 12:36:33;;;;;;;3.92;2.80;;;21.50;57.70;;;;;;5041248;28;20033;-51
2022/10/02 12:39:12;;;;;;;5.75;3.00;;;21.50;57.50;;;;;;5030718;28;20048;-48
2022/10/02 12:41:57;;;;;;;6.80;3.47;;;21.50;56.90;;;;;;5034114;28;20466;-50
2022/10/02 12:44:57;;;;;;;7.28;3.20;;;21.50;57.50;;;;;;5042405;28;20051;-51
2022/10/02 12:47:52;;;;;;;5.35;2.92;;;21.70;56.60;;;;;;5052873;28;20045;-50
2022/10/02 12:50:51;;;;;;;10.10;3.75;;;21.70;56.00;;;;;;5035528;28;20037;-52
2022/10/02 12:53:32;;;;;;;5.78;3.17;;;21.80;55.90;;;;;;5029380;28;20041;-51
2022/10/02 12:56:27;;;;;;;5.25;2.88;;;21.90;55.30;;;;;;5030680;28;20030;-49
2022/10/02 12:59:07;;;;;;;5.75;3.20;;;22.00;55.00;;;;;;5031439;28;20049;-49
2022/10/02 13:02:15;;;;;;;7.68;3.70;;;22.00;55.40;;;;;;5030840;28;20095;-47
2022/10/02 13:04:44;;;;;;;5.72;3.38;;;22.10;55.90;;;;;;5032298;28;20041;-52
2022/10/02 13:07:31;;;;;;;5.45;3.28;;;22.20;55.80;;;;;;5031124;28;20056;-51
2022/10/02 13:10:01;;;;;;;8.90;3.58;;;22.30;55.20;;;;;;5020658;28;20042;-50
2022/10/02 13:12:49;;;;;;;8.10;3.40;;;22.30;55.00;;;;;;5034325;28;20044;-49
2022/10/02 13:15:34;;;;;;;7.45;3.42;;;22.40;54.50;;;;;;5040608;28;20496;-49
2022/10/02 13:18:08;;;;;;;6.15;3.28;;;22.40;53.90;;;;;;5024270;28;20061;-50
2022/10/02 13:20:40;;;;;;;11.23;4.65;;;22.40;54.40;;;;;;5036916;28;20139;-51
2022/10/02 13:23:22;;;;;;;7.70;3.08;;;22.40;54.00;;;;;;5042253;28;20037;-50
2022/10/02 13:26:14;;;;;;;7.60;2.88;;;22.40;54.40;;;;;;5047150;28;20128;-49
2022/10/02 13:29:00;;;;;;;6.38;3.10;;;22.40;54.00;;;;;;5027198;28;20462;-51
2022/10/02 13:32:00;;;;;;;6.68;3.45;;;22.50;54.20;;;;;;5045471;28;20056;-52
2022/10/02 13:34:36;;;;;;;7.63;3.88;;;22.40;54.00;;;;;;5050149;28;20072;-51
2022/10/02 13:37:16;;;;;;;6.13;3.17;;;22.40;53.40;;;;;;5038299;28;20045;-51
2022/10/02 13:40:04;;;;;;;9.60;3.63;;;22.40;54.10;;;;;;5041837;28;20766;-52
2022/10/02 13:42:35;;;;;;;6.13;3.30;;;22.30;54.00;;;;;;5027194;28;20045;-51
2022/10/02 13:45:25;;;;;;;7.32;3.25;;;22.30;54.00;;;;;;5025438;28;20049;-49
2022/10/02 13:48:06;;;;;;;6.20;3.95;;;22.20;53.80;;;;;;5030776;28;20045;-50
2022/10/02 13:50:49;;;;;;;7.50;3.83;;;22.10;54.00;;;;;;5033565;28;20045;-49
2022/10/02 13:53:45;;;;;;;4.35;3.58;;;22.00;54.90;;;;;;5034110;28;20604;-49
2022/10/02 13:56:29;;;;;;;6.97;4.65;;;22.00;55.00;;;;;;5025717;28;20408;-48
2022/10/02 13:59:35;;;;;;;9.23;5.00;;;21.90;55.50;;;;;;5034499;28;20570;-52
2022/10/02 14:02:15;;;;;;;8.60;4.13;;;21.80;55.90;;;;;;5011111;28;20037;-53
2022/10/02 14:05:18;;;;;;;6.75;3.80;;;21.70;56.10;;;;;;5018293;28;20072;-49
2022/10/02 14:08:09;;;;;;;10.27;5.22;;;21.60;56.50;;;;;;5031846;28;20532;-49
2022/10/02 14:10:38;;;;;;;7.70;3.95;;;21.50;56.80;;;;;;5032145;28;20043;-52
2022/10/02 14:13:32;;;;;;;10.20;4.75;;;21.40;57.10;;;;;;5030258;28;20505;-51
2022/10/02 14:16:20;;;;;;;6.63;4.82;;;21.30;57.60;;;;;;5035324;28;20120;-51
2022/10/02 14:19:04;;;;;;;8.68;4.07;;;21.30;58.30;;;;;;5037729;28;20033;-52
2022/10/02 14:21:38;;;;;;;5.22;3.92;;;21.20;58.60;;;;;;5026952;28;20405;-49
2022/10/02 14:24:58;;;;;;;8.48;4.55;;;21.20;59.20;;;;;;5024707;28;20049;-50
2022/10/02 14:28:01;;;;;;;4.50;3.95;;;21.20;58.70;;;;;;5026881;28;20120;-51